createdAt,value
2022-12-13T00:01:22.843Z,11.60
2022-12-13T00:03:52.278Z,11.13
2022-12-13T00:06:19.057Z,11.63
2022-12-13T00:08:45.932Z,11.23
2022-12-13T00:11:14.282Z,10.52
2022-12-13T00:13:43.117Z,11.68
2022-12-13T00:16:16.076Z,10.45
2022-12-13T00:18:43.618Z,10.40
2022-12-13T00:21:15.200Z,9.70
2022-12-13T00:23:42.133Z,9.93
2022-12-13T00:26:18.835Z,9.85
2022-12-13T00:28:49.088Z,10.35
2022-12-13T00:31:53.544Z,8.45
2022-12-13T00:34:04.292Z,8.02
2022-12-13T00:36:31.066Z,8.48
2022-12-13T00:39:00.891Z,10.35
2022-12-13T00:41:30.783Z,9.60
2022-12-13T00:43:58.533Z,8.65
2022-12-13T00:46:26.537Z,8.77
2022-12-13T00:48:56.733Z,8.80
2022-12-13T00:51:24.468Z,9.98
2022-12-13T00:53:51.405Z,10.07
2022-12-13T00:56:21.691Z,9.23
2022-12-13T00:58:52.294Z,9.38
2022-12-13T01:01:25.234Z,9.68
2022-12-13T01:03:57.819Z,11.07
2022-12-13T01:06:37.690Z,9.57
2022-12-13T01:09:06.495Z,8.73
2022-12-13T01:11:33.457Z,9.45
2022-12-13T01:14:00.258Z,9.95
2022-12-13T01:16:27.117Z,9.45
2022-12-13T01:18:54.011Z,8.60
2022-12-13T01:21:22.268Z,8.35
2022-12-13T01:23:49.727Z,8.05
2022-12-13T01:26:19.677Z,8.45
2022-12-13T01:28:47.284Z,8.65
2022-12-13T01:31:16.525Z,7.95
2022-12-13T01:33:43.496Z,8.60
2022-12-13T01:36:13.778Z,8.07
2022-12-13T01:38:40.663Z,8.73
2022-12-13T01:41:16.697Z,8.52
2022-12-13T01:43:55.049Z,8.35
2022-12-13T01:49:04.065Z,7.43
2022-12-13T01:51:51.155Z,8.68
2022-12-13T01:54:22.841Z,9.65
2022-12-13T01:56:53.423Z,9.18
2022-12-13T01:59:28.413Z,9.27
2022-12-13T02:02:01.081Z,9.52
2022-12-13T02:04:43.828Z,9.23
2022-12-13T02:07:23.024Z,8.93
2022-12-13T02:09:56.585Z,8.52
2022-12-13T02:12:30.363Z,8.18
2022-12-13T02:15:01.126Z,8.15
2022-12-13T02:17:49.575Z,9.18
2022-12-13T02:20:47.235Z,8.75
2022-12-13T02:23:48.487Z,10.15
2022-12-13T02:26:54.650Z,9.95
2022-12-13T02:29:30.405Z,9.65
2022-12-13T02:32:17.801Z,10.82
2022-12-13T02:35:07.368Z,11.43
2022-12-13T02:38:07.310Z,13.65
2022-12-13T02:40:48.350Z,14.95
2022-12-13T02:43:33.680Z,14.02
2022-12-13T02:46:03.445Z,11.57
2022-12-13T02:48:34.333Z,12.35
2022-12-13T02:51:05.181Z,14.65
2022-12-13T02:53:34.005Z,12.68
2022-12-13T02:56:00.984Z,14.23
2022-12-13T02:58:35.794Z,13.30
2022-12-13T03:01:29.097Z,13.95
2022-12-13T03:04:15.242Z,13.27
2022-12-13T03:07:12.610Z,14.55
2022-12-13T03:09:55.473Z,15.10
2022-12-13T03:13:09.403Z,12.45
2022-12-13T03:15:47.522Z,12.48
2022-12-13T03:18:22.698Z,14.00
2022-12-13T03:20:52.744Z,13.05
2022-12-13T03:23:20.918Z,14.13
2022-12-13T03:25:52.071Z,14.65
2022-12-13T03:28:19.059Z,13.50
2022-12-13T03:30:46.001Z,12.90
2022-12-13T03:33:12.756Z,14.98
2022-12-13T03:35:44.898Z,16.08
2022-12-13T03:38:22.503Z,13.35
2022-12-13T03:40:57.532Z,14.10
2022-12-13T03:43:24.713Z,13.10
2022-12-13T03:45:52.629Z,13.68
2022-12-13T03:48:22.642Z,14.20
2022-12-13T03:50:50.991Z,13.85
2022-12-13T03:53:23.231Z,14.13
2022-12-13T03:56:02.636Z,14.85
2022-12-13T03:58:35.626Z,14.65
2022-12-13T04:01:14.109Z,14.02
2022-12-13T04:03:42.572Z,15.52
2022-12-13T04:06:10.840Z,12.77
2022-12-13T04:08:39.145Z,14.60
2022-12-13T04:11:25.872Z,12.80
2022-12-13T04:13:55.891Z,13.13
2022-12-13T04:16:23.653Z,14.15
2022-12-13T04:18:50.627Z,13.45
2022-12-13T04:21:17.555Z,14.40
2022-12-13T04:23:44.383Z,15.95
2022-12-13T04:26:11.192Z,14.15
2022-12-13T04:28:37.954Z,14.52
2022-12-13T04:31:04.808Z,14.07
2022-12-13T04:33:32.758Z,13.48
2022-12-13T04:35:59.813Z,12.50
2022-12-13T04:38:26.639Z,13.38
2022-12-13T04:40:53.500Z,12.55
2022-12-13T04:43:20.251Z,15.80
2022-12-13T04:45:47.076Z,16.45
2022-12-13T04:48:13.886Z,16.42
2022-12-13T04:51:00.983Z,17.15
2022-12-13T04:53:30.011Z,17.17
2022-12-13T04:55:56.880Z,15.57
2022-12-13T04:58:23.691Z,16.17
2022-12-13T05:00:50.439Z,17.45
2022-12-13T05:03:17.258Z,16.05
2022-12-13T05:05:44.063Z,14.80
2022-12-13T05:08:10.839Z,15.95
2022-12-13T05:10:38.270Z,16.50
2022-12-13T05:13:06.220Z,16.15
2022-12-13T05:15:33.866Z,15.70
2022-12-13T05:18:09.809Z,18.35
2022-12-13T05:20:40.478Z,16.80
2022-12-13T05:23:07.716Z,18.38
2022-12-13T05:25:36.909Z,18.30
2022-12-13T05:28:08.790Z,17.88
2022-12-13T05:33:18.771Z,18.63
2022-12-13T05:35:46.717Z,18.70
2022-12-13T05:38:13.505Z,19.13
2022-12-13T05:40:40.779Z,17.88
2022-12-13T05:43:21.287Z,19.02
2022-12-13T05:45:49.151Z,19.10
2022-12-13T05:48:16.313Z,19.38
2022-12-13T05:50:51.751Z,17.52
2022-12-13T05:53:37.183Z,17.27
2022-12-13T05:56:04.176Z,17.20
2022-12-13T05:58:35.855Z,16.77
2022-12-13T06:01:08.406Z,18.65
2022-12-13T06:03:35.828Z,18.02
2022-12-13T06:06:03.769Z,17.25
2022-12-13T06:08:31.057Z,19.52
2022-12-13T06:11:11.379Z,17.17
2022-12-13T06:13:44.000Z,17.00
2022-12-13T06:16:22.822Z,17.50
2022-12-13T06:18:57.457Z,17.77
2022-12-13T06:21:26.177Z,18.33
2022-12-13T06:23:52.880Z,18.90
2022-12-13T06:26:19.822Z,19.13
2022-12-13T06:28:46.605Z,19.88
2022-12-13T06:31:13.506Z,17.95
2022-12-13T06:33:40.250Z,21.00
2022-12-13T06:36:07.772Z,19.65
2022-12-13T06:38:34.454Z,19.45
2022-12-13T06:41:15.111Z,19.52
2022-12-13T06:43:43.725Z,18.50
2022-12-13T06:46:10.829Z,20.63
2022-12-13T06:48:37.782Z,19.42
2022-12-13T06:51:05.530Z,20.20
2022-12-13T06:53:33.422Z,21.63
2022-12-13T06:56:08.385Z,20.50
2022-12-13T06:58:36.100Z,19.55
2022-12-13T07:01:14.670Z,21.63
2022-12-13T07:03:42.791Z,19.92
2022-12-13T07:06:28.031Z,20.13
2022-12-13T07:08:57.799Z,21.83
2022-12-13T07:11:27.223Z,21.35
2022-12-13T07:13:55.129Z,21.70
2022-12-13T07:16:23.103Z,19.88
2022-12-13T07:19:01.719Z,19.73
2022-12-13T07:21:29.859Z,20.58
2022-12-13T07:23:57.079Z,19.83
2022-12-13T07:26:24.838Z,18.75
2022-12-13T07:28:55.339Z,20.77
2022-12-13T07:31:24.151Z,19.17
2022-12-13T07:33:51.340Z,21.00
2022-12-13T07:36:20.787Z,20.48
2022-12-13T07:38:52.919Z,20.92
2022-12-13T07:41:23.542Z,20.85
2022-12-13T07:43:55.161Z,21.13
2022-12-13T07:46:31.937Z,23.23
2022-12-13T07:51:28.885Z,20.08
2022-12-13T07:53:55.618Z,20.60
2022-12-13T07:56:22.468Z,21.83
2022-12-13T07:58:49.180Z,23.48
2022-12-13T08:01:15.921Z,23.00
2022-12-13T08:03:42.929Z,22.67
2022-12-13T08:06:12.238Z,20.48
2022-12-13T08:08:39.815Z,23.30
2022-12-13T08:11:09.514Z,21.42
2022-12-13T08:13:36.786Z,20.80
2022-12-13T08:16:26.350Z,19.73
2022-12-13T08:19:03.061Z,22.50
2022-12-13T08:21:56.812Z,22.38
2022-12-13T08:24:26.850Z,23.00
2022-12-13T08:26:54.866Z,21.95
2022-12-13T08:29:23.266Z,21.95
2022-12-13T08:32:07.928Z,21.77
2022-12-13T08:34:35.159Z,22.67
2022-12-13T08:37:03.909Z,21.63
2022-12-13T08:39:37.236Z,21.33
2022-12-13T08:42:19.434Z,20.27
2022-12-13T08:44:52.341Z,20.17
2022-12-13T08:47:26.028Z,23.42
2022-12-13T08:50:01.900Z,20.77
2022-12-13T08:54:58.484Z,18.77
2022-12-13T08:57:25.293Z,19.73
2022-12-13T08:59:52.047Z,21.45
2022-12-13T09:02:19.045Z,18.98
2022-12-13T09:04:45.990Z,20.75
2022-12-13T09:07:13.374Z,19.08
2022-12-13T09:09:40.129Z,19.50
2022-12-13T09:12:10.934Z,18.10
2022-12-13T09:15:01.159Z,17.63
2022-12-13T09:17:36.396Z,17.70
2022-12-13T09:20:10.027Z,17.50
2022-12-13T09:22:51.098Z,16.98
2022-12-13T09:25:24.165Z,16.27
2022-12-13T09:27:51.504Z,16.02
2022-12-13T09:30:18.224Z,17.23
2022-12-13T09:32:49.772Z,16.05
2022-12-13T09:35:17.160Z,16.67
2022-12-13T09:37:46.055Z,17.88
2022-12-13T09:40:26.549Z,17.02
2022-12-13T09:43:13.718Z,18.73
2022-12-13T09:45:48.037Z,17.70
2022-12-13T09:48:23.293Z,16.63
2022-12-13T09:50:58.314Z,16.63
2022-12-13T09:53:39.330Z,17.23
2022-12-13T09:56:11.364Z,17.70
2022-12-13T09:58:38.278Z,18.92
2022-12-13T10:01:06.181Z,17.85
2022-12-13T10:03:33.064Z,20.02
2022-12-13T10:06:23.347Z,21.42
2022-12-13T10:08:57.746Z,17.40
2022-12-13T10:11:32.341Z,19.35
2022-12-13T10:14:26.372Z,18.13
2022-12-13T10:16:57.803Z,17.58
2022-12-13T10:19:36.506Z,17.35
2022-12-13T10:22:06.085Z,18.42
2022-12-13T10:24:56.052Z,19.25
2022-12-13T10:27:33.273Z,17.60
2022-12-13T10:32:42.753Z,17.30
2022-12-13T10:35:36.839Z,17.35
2022-12-13T10:38:32.137Z,16.42
2022-12-13T10:41:01.122Z,16.15
2022-12-13T10:43:30.430Z,18.33
2022-12-13T10:46:00.508Z,18.63
2022-12-13T10:48:39.120Z,18.73
2022-12-13T10:51:21.433Z,17.88
2022-12-13T10:53:58.616Z,19.90
2022-12-13T10:59:17.182Z,18.43
2022-12-13T11:01:44.507Z,18.13
2022-12-13T11:04:32.771Z,18.27
2022-12-13T11:07:25.521Z,16.65
2022-12-13T11:09:53.080Z,19.92
2022-12-13T11:12:23.722Z,19.05
2022-12-13T11:14:57.171Z,18.50
2022-12-13T11:17:27.010Z,20.27
2022-12-13T11:20:05.038Z,17.23
2022-12-13T11:22:40.225Z,19.05
2022-12-13T11:25:27.766Z,19.13
2022-12-13T11:28:26.863Z,19.58
2022-12-13T11:31:19.110Z,18.80
2022-12-13T11:34:20.115Z,19.85
2022-12-13T11:37:01.167Z,18.17
2022-12-13T11:39:27.903Z,18.73
2022-12-13T11:41:58.338Z,20.30
2022-12-13T11:44:43.079Z,20.38
2022-12-13T11:47:25.171Z,18.92
2022-12-13T11:49:53.240Z,19.75
2022-12-13T11:52:30.730Z,18.30
2022-12-13T11:55:04.877Z,18.98
2022-12-13T11:57:54.881Z,20.48
2022-12-13T12:00:39.669Z,19.17
2022-12-13T12:03:20.135Z,17.45
2022-12-13T12:06:02.564Z,19.42
2022-12-13T12:08:50.376Z,17.70
2022-12-13T12:11:28.035Z,17.42
2022-12-13T12:14:08.124Z,17.60
2022-12-13T12:16:42.722Z,19.40
2022-12-13T12:19:19.573Z,17.08
2022-12-13T12:22:16.851Z,19.60
2022-12-13T12:25:11.180Z,18.80
2022-12-13T12:27:59.634Z,19.77
2022-12-13T12:30:36.534Z,19.40
2022-12-13T12:33:32.646Z,18.75
2022-12-13T12:36:18.208Z,18.65
2022-12-13T12:39:03.061Z,18.33
2022-12-13T12:41:45.509Z,21.48
2022-12-13T12:44:36.664Z,19.30
2022-12-13T12:47:36.194Z,18.33
2022-12-13T12:50:11.700Z,18.02
2022-12-13T12:53:16.187Z,18.05
2022-12-13T12:56:24.657Z,16.40
2022-12-13T12:59:15.541Z,17.00
2022-12-13T13:02:12.518Z,17.23
2022-12-13T13:04:46.254Z,18.40
2022-12-13T13:07:27.549Z,18.38
2022-12-13T13:09:55.610Z,17.52
2022-12-13T13:12:29.696Z,15.75
2022-12-13T13:14:57.955Z,15.50
2022-12-13T13:17:24.652Z,15.27
2022-12-13T13:20:01.565Z,16.70
2022-12-13T13:22:43.453Z,16.33
2022-12-13T13:25:27.712Z,15.15
2022-12-13T13:28:15.636Z,15.70
2022-12-13T13:31:14.739Z,16.02
2022-12-13T13:33:48.819Z,15.07
2022-12-13T13:36:41.214Z,14.40
2022-12-13T13:39:27.030Z,13.48
2022-12-13T13:42:14.151Z,14.27
2022-12-13T13:44:50.478Z,14.48
2022-12-13T13:47:39.212Z,16.73
2022-12-13T13:50:21.342Z,13.90
2022-12-13T13:53:34.913Z,15.27
2022-12-13T13:56:28.442Z,15.15
2022-12-13T13:59:33.115Z,14.55
2022-12-13T14:02:28.831Z,16.05
2022-12-13T14:05:53.276Z,14.75
2022-12-13T14:08:41.532Z,14.10
2022-12-13T14:11:36.903Z,16.55
2022-12-13T14:14:22.861Z,16.00
2022-12-13T14:17:17.426Z,16.45
2022-12-13T14:20:00.829Z,14.00
2022-12-13T14:22:44.280Z,16.23
2022-12-13T14:25:52.193Z,16.10
2022-12-13T14:28:52.966Z,14.18
2022-12-13T14:31:33.409Z,15.23
2022-12-13T14:34:02.942Z,15.55
2022-12-13T14:36:34.974Z,15.70
2022-12-13T14:39:05.132Z,16.83
2022-12-13T14:41:33.298Z,16.83
2022-12-13T14:44:32.144Z,20.80
2022-12-13T14:47:03.297Z,19.33
2022-12-13T14:49:35.315Z,16.60
2022-12-13T14:52:26.832Z,20.35
2022-12-13T14:54:58.029Z,19.45
2022-12-13T14:57:28.320Z,17.40
2022-12-13T14:59:57.859Z,17.52
2022-12-13T15:02:33.428Z,17.02
2022-12-13T15:05:05.563Z,16.45
2022-12-13T15:07:37.524Z,15.75
2022-12-13T15:10:33.727Z,16.08
2022-12-13T15:13:00.677Z,16.63
2022-12-13T15:15:32.828Z,15.45
2022-12-13T15:18:23.807Z,14.57
2022-12-13T15:20:55.151Z,16.60
2022-12-13T15:23:48.703Z,14.80
2022-12-13T15:26:28.683Z,16.40
2022-12-13T15:31:28.404Z,17.48
2022-12-13T15:34:28.930Z,16.45
2022-12-13T15:37:03.069Z,15.88
2022-12-13T15:39:33.235Z,16.98
2022-12-13T15:42:00.284Z,17.77
2022-12-13T15:44:33.608Z,16.05
2022-12-13T15:47:05.233Z,16.55
2022-12-13T15:49:38.793Z,14.90
2022-12-13T15:52:13.524Z,16.45
2022-12-13T15:54:40.802Z,16.02
2022-12-13T15:57:17.441Z,14.88
2022-12-13T15:59:44.905Z,15.27
2022-12-13T16:02:25.358Z,14.98
2022-12-13T16:04:52.427Z,16.13
2022-12-13T16:07:40.291Z,18.70
2022-12-13T16:10:08.660Z,15.15
2022-12-13T16:13:01.900Z,17.15
2022-12-13T16:15:49.871Z,17.33
2022-12-13T16:18:26.347Z,16.45
2022-12-13T16:20:54.875Z,17.15
2022-12-13T16:23:26.714Z,17.30
2022-12-13T16:25:54.131Z,18.30
2022-12-13T16:28:26.260Z,17.85
2022-12-13T16:30:53.262Z,15.95
2022-12-13T16:33:26.833Z,17.15
2022-12-13T16:35:55.933Z,15.90
2022-12-13T16:38:26.463Z,15.32
2022-12-13T16:40:55.538Z,16.33
2022-12-13T16:43:33.046Z,17.35
2022-12-13T16:47:11.403Z,16.05
2022-12-13T16:48:51.102Z,16.55
2022-12-13T16:51:18.252Z,16.73
2022-12-13T16:53:45.320Z,16.75
2022-12-13T16:56:16.104Z,16.58
2022-12-13T16:58:49.625Z,18.77
2022-12-13T17:01:20.041Z,17.52
2022-12-13T17:03:47.474Z,17.27
2022-12-13T17:06:19.426Z,18.88
2022-12-13T17:08:46.256Z,17.75
2022-12-13T17:11:17.784Z,16.67
2022-12-13T17:13:47.379Z,16.70
2022-12-13T17:16:14.365Z,19.30
2022-12-13T17:18:41.194Z,18.23
2022-12-13T17:21:09.598Z,18.45
2022-12-13T17:23:37.083Z,18.85
2022-12-13T17:26:08.625Z,19.50
2022-12-13T17:28:35.815Z,19.85
2022-12-13T17:31:14.786Z,18.40
2022-12-13T17:33:43.103Z,18.60
2022-12-13T17:36:11.970Z,18.85
2022-12-13T17:38:43.909Z,18.00
2022-12-13T17:41:10.823Z,16.35
2022-12-13T17:43:38.014Z,18.90
2022-12-13T17:46:14.471Z,16.48
2022-12-13T17:48:42.428Z,19.40
2022-12-13T17:51:10.355Z,19.70
2022-12-13T17:53:39.237Z,19.52
2022-12-13T17:56:07.940Z,21.33
2022-12-13T17:58:35.379Z,21.25
2022-12-13T18:01:16.734Z,20.90
2022-12-13T18:03:43.630Z,21.40
2022-12-13T18:06:10.771Z,19.35
2022-12-13T18:08:38.905Z,17.05
2022-12-13T18:13:54.745Z,19.77
2022-12-13T18:16:23.427Z,18.85
2022-12-13T18:18:55.313Z,20.48
2022-12-13T18:21:24.074Z,18.50
2022-12-13T18:23:55.061Z,19.13
2022-12-13T18:26:24.500Z,19.55
2022-12-13T18:28:52.157Z,20.33
2022-12-13T18:31:22.329Z,19.00
2022-12-13T18:33:50.447Z,19.15
2022-12-13T18:36:18.866Z,22.02
2022-12-13T18:38:45.793Z,20.75
2022-12-13T18:41:20.170Z,20.73
2022-12-13T18:43:47.716Z,22.02
2022-12-13T18:46:15.926Z,20.95
2022-12-13T18:48:43.027Z,21.17
2022-12-13T18:51:10.755Z,21.70
2022-12-13T18:53:38.772Z,20.60
2022-12-13T18:56:11.583Z,18.45
2022-12-13T18:58:41.614Z,19.25
2022-12-13T19:01:10.798Z,20.85
2022-12-13T19:03:38.480Z,20.52
2022-12-13T19:06:06.563Z,20.67
2022-12-13T19:08:33.946Z,21.83
2022-12-13T19:11:01.917Z,21.60
2022-12-13T19:13:29.965Z,19.70
2022-12-13T19:16:03.279Z,21.05
2022-12-13T19:18:30.072Z,20.52
2022-12-13T19:20:56.856Z,20.55
2022-12-13T19:23:23.891Z,20.60
2022-12-13T19:25:51.224Z,20.50
2022-12-13T19:28:19.372Z,21.00
2022-12-13T19:30:47.578Z,20.13
2022-12-13T19:33:15.225Z,19.88
2022-12-13T19:35:43.046Z,20.42
2022-12-13T19:38:10.311Z,21.60
2022-12-13T19:40:42.261Z,21.30
2022-12-13T19:43:10.062Z,22.15
2022-12-13T19:45:36.764Z,20.88
2022-12-13T19:48:05.128Z,21.38
2022-12-13T19:50:31.844Z,22.00
2022-12-13T19:52:58.648Z,22.08
2022-12-13T19:55:25.452Z,21.00
2022-12-13T19:57:52.698Z,22.00
2022-12-13T20:00:19.411Z,21.65
2022-12-13T20:02:46.183Z,20.73
2022-12-13T20:05:12.936Z,19.38
2022-12-13T20:07:39.764Z,21.30
2022-12-13T20:10:07.211Z,20.60
2022-12-13T20:12:40.504Z,22.33
2022-12-13T20:15:08.826Z,22.85
2022-12-13T20:17:36.267Z,19.42
2022-12-13T20:20:04.340Z,21.02
2022-12-13T20:22:32.243Z,20.88
2022-12-13T20:25:00.615Z,22.83
2022-12-13T20:27:27.703Z,20.83
2022-12-13T20:29:54.459Z,21.67
2022-12-13T20:32:21.369Z,20.38
2022-12-13T20:34:53.070Z,20.02
2022-12-13T20:37:23.633Z,20.98
2022-12-13T20:39:50.365Z,20.25
2022-12-13T20:42:17.099Z,23.15
2022-12-13T20:44:43.811Z,22.95
2022-12-13T20:47:10.679Z,23.17
2022-12-13T20:49:37.432Z,20.98
2022-12-13T20:52:04.367Z,22.40
2022-12-13T20:54:31.385Z,20.27
2022-12-13T20:56:58.170Z,23.10
2022-12-13T20:59:24.867Z,22.52
2022-12-13T21:01:51.722Z,21.52
2022-12-13T21:04:18.586Z,22.35
2022-12-13T21:06:45.325Z,21.48
2022-12-13T21:09:12.682Z,21.85
2022-12-13T21:11:40.745Z,23.02
2022-12-13T21:14:21.231Z,23.35
2022-12-13T21:16:53.758Z,24.88
2022-12-13T21:19:25.743Z,24.80
2022-12-13T21:21:53.598Z,27.63
2022-12-13T21:24:22.520Z,23.27
2022-12-13T21:26:51.041Z,25.25
2022-12-13T21:29:18.385Z,22.90
2022-12-13T21:31:49.214Z,23.42
2022-12-13T21:34:17.567Z,24.13
2022-12-13T21:36:46.407Z,23.92
2022-12-13T21:39:27.715Z,25.75
2022-12-13T21:41:54.635Z,23.58
2022-12-13T21:44:21.783Z,25.85
2022-12-13T21:49:35.896Z,26.30
2022-12-13T21:54:29.184Z,23.00
2022-12-13T21:57:14.557Z,25.42
2022-12-13T21:59:41.320Z,22.60
2022-12-13T22:02:20.140Z,26.15
2022-12-13T22:04:54.983Z,24.70
2022-12-13T22:07:27.108Z,24.25
2022-12-13T22:09:54.844Z,26.17
2022-12-13T22:12:24.448Z,23.75
2022-12-13T22:14:52.223Z,23.67
2022-12-13T22:17:24.881Z,23.73
2022-12-13T22:19:54.713Z,23.63
2022-12-13T22:22:23.448Z,23.48
2022-12-13T22:24:53.648Z,25.67
2022-12-13T22:27:25.603Z,25.52
2022-12-13T22:29:54.358Z,23.83
2022-12-13T22:32:22.838Z,25.35
2022-12-13T22:34:49.640Z,25.15
2022-12-13T22:37:16.465Z,23.33
2022-12-13T22:39:43.229Z,25.52
2022-12-13T22:42:09.983Z,23.95
2022-12-13T22:44:36.699Z,25.95
2022-12-13T22:47:03.491Z,23.27
2022-12-13T22:49:30.213Z,25.25
2022-12-13T22:51:57.368Z,24.17
2022-12-13T22:54:24.106Z,24.33
2022-12-13T22:56:51.713Z,24.38
2022-12-13T22:59:18.854Z,25.55
2022-12-13T23:01:47.517Z,24.90
2022-12-13T23:04:15.176Z,23.73
2022-12-13T23:06:42.127Z,25.20
2022-12-13T23:09:12.406Z,26.27
2022-12-13T23:11:58.631Z,25.80
2022-12-13T23:14:28.778Z,24.92
2022-12-13T23:16:55.955Z,27.48
2022-12-13T23:22:09.494Z,28.97
2022-12-13T23:27:03.554Z,29.75
2022-12-13T23:29:30.556Z,28.00
2022-12-13T23:31:57.262Z,33.13
2022-12-13T23:34:24.178Z,33.50
2022-12-13T23:36:50.907Z,29.90
2022-12-13T23:39:17.716Z,28.13
2022-12-13T23:41:44.477Z,30.88
2022-12-13T23:44:11.393Z,26.20
2022-12-13T23:46:38.183Z,31.70
2022-12-13T23:49:06.210Z,30.58
2022-12-13T23:51:34.031Z,29.38
2022-12-13T23:54:00.769Z,32.65
2022-12-13T23:56:27.629Z,31.15
2022-12-13T23:58:54.399Z,31.23
